Startpagina
METAR-TAF:

METAR-TAF

Vliegvelden :

London Southend Airport

Londen-Southend, Engeland

breedte: 51-34N, lengte: 000-42E, hoogte: 15 m

Actueel weer

Dit bericht is 20 minuten geleden gemaakt, om 16:20 UTC
Wind 12 kt uit het westen
Temperatuur 6°C
Vochtigheid 70%
Druk 1005 hPa
Zicht 10 km of meer
Weinig wolken op 1700 ft

METAR: EGMC 261620Z 28012KT 9999 FEW017 06/01 Q1005

Tijdstip: 16:40 (16:40 UTC)

Verwachting

Dit bericht is 2 uur en het 37 minuten geleden gemaakt, om 14:03 UTC
Verwachting geldig van 26 om 15 UTC tot 26 om 24 UTC
Wind 12 kt uit het westen
Zicht 10 km of meer
Weinig wolken op 3000 ft
Kans 40% :
Tijdelijke
van 26 om 15 UTC tot 26 om 18 UTC
Wind 15 kt uit het westnoordwesten met uitschieters tot 27 kt
Zicht: 4000 m
Gebroken wolken op 1400 ft, Cumulonimbus.
regenbuien
Wijzigt naar
van 26 om 22 UTC tot 26 om 24 UTC
Wind 8 kt uit het zuidwesten

TAF: EGMC 261403Z 2615/2624 28012KT 9999 FEW030 PROB40 TEMPO 2615/2618 29015G27KT 4000 SHRA BKN014CB BECMG 2622/2624 22008KT

Waarnemingen en weersverwachtingen van meer dan 4000 vliegvelden (METAR en TAF).

De beschikbare stations zijn de gele en rode punten op de kaart.

Ga met uw muis naar het station om de naam te zien.

Klik dan om waarnemingen en weersverwachtingen te zien.

kaart wijzigen: klik op de groene knoppen met een zwart kruis om in te zoomen, op de groene knop met een streepje om uit te zoomen of op de groene pijlen voor aangrenzende kaarten.


METAR-TAF: